Time;durP1;ratioP1;P1;durP2;ratioP2;P2;SDS_P1;SDS_P2;PMS_P1;PMS_P2;Temp;Humidity;BMP_temperature;BMP_pressure;BME280_temperature;BME280_humidity;BME280_pressure;Samples;Min_cycle;Max_cycle;Signal;HPM_P1;HPM_P2
2022/01/04 00:00:14;;;;;;;0.87;0.70;;;10.70;83.30;10.20;97298.00;;;;5098074;28;20229;-79
2022/01/04 00:02:41;;;;;;;0.70;0.70;;;10.80;83.00;10.10;97291.00;;;;5105085;28;20214;-80
2022/01/04 00:05:10;;;;;;;0.60;0.60;;;10.80;83.60;10.20;97290.00;;;;5109386;28;20229;-80
2022/01/04 00:07:37;;;;;;;0.70;0.70;;;10.80;83.70;10.10;97288.00;;;;5108791;28;20213;-79
2022/01/04 00:10:08;;;;;;;0.63;0.63;;;10.80;84.00;10.00;97287.00;;;;5096648;28;20648;-79
2022/01/04 00:15:19;;;;;;;0.70;0.70;;;10.70;84.40;10.00;97270.00;;;;5096741;28;20218;-79
2022/01/04 00:17:45;;;;;;;0.40;0.40;;;10.70;85.20;10.00;97261.00;;;;5096599;28;20280;-79
2022/01/04 00:20:12;;;;;;;0.60;0.60;;;10.70;85.60;9.90;97259.00;;;;5096502;28;20621;-79
2022/01/04 00:22:39;;;;;;;0.43;0.43;;;10.60;85.70;10.10;97246.00;;;;5096615;28;20210;-78
2022/01/04 00:25:07;;;;;;;0.60;0.60;;;10.70;85.60;10.00;97245.00;;;;5096500;28;20292;-80
2022/01/04 00:27:33;;;;;;;0.60;0.60;;;10.70;85.20;9.90;97246.00;;;;5096459;28;20221;-79
2022/01/04 00:30:04;;;;;;;0.80;0.80;;;10.60;85.60;10.00;97243.00;;;;5096454;28;20217;-80
2022/01/04 00:32:30;;;;;;;0.60;0.60;;;10.60;86.20;9.90;97234.00;;;;5096298;28;20243;-80
2022/01/04 00:34:59;;;;;;;0.87;0.87;;;10.60;86.00;9.90;97206.00;;;;5096500;28;20233;-79
2022/01/04 00:37:26;;;;;;;0.70;0.70;;;10.60;85.80;9.90;97239.00;;;;5113280;28;20316;-79
2022/01/04 00:39:55;;;;;;;0.57;0.57;;;10.60;86.40;9.90;97223.00;;;;5096323;28;20628;-79
2022/01/04 00:42:22;;;;;;;0.87;0.87;;;10.60;86.30;9.90;97215.00;;;;5096323;28;20221;-79
2022/01/04 00:44:48;;;;;;;0.50;0.50;;;10.60;86.50;9.90;97216.00;;;;5096737;28;20205;-79
2022/01/04 00:47:15;;;;;;;1.00;1.00;;;10.50;87.30;9.90;97209.00;;;;5099803;28;20300;-79
2022/01/04 00:49:42;;;;;;;0.80;0.80;;;10.60;86.30;10.00;97191.00;;;;5099625;28;20268;-80
2022/01/04 00:52:14;;;;;;;0.50;0.50;;;10.60;86.20;10.00;97197.00;;;;5099927;28;20216;-80
2022/01/04 00:54:41;;;;;;;19.03;0.80;;;10.60;86.40;10.00;97190.00;;;;5099623;28;20221;-79
2022/01/04 00:57:08;;;;;;;0.50;0.50;;;10.70;86.00;10.00;97200.00;;;;5099444;28;20704;-78
2022/01/04 00:59:34;;;;;;;0.50;0.50;;;10.70;86.10;10.00;97189.00;;;;5116364;28;20618;-80
2022/01/04 01:02:01;;;;;;;0.60;0.60;;;10.60;85.90;10.00;97188.00;;;;5099504;28;20655;-80
2022/01/04 01:04:27;;;;;;;0.77;0.77;;;10.70;87.10;9.90;97175.00;;;;5099295;28;20539;-80
2022/01/04 01:06:54;;;;;;;0.93;0.80;;;10.60;86.30;10.00;97167.00;;;;5099373;28;20202;-79
2022/01/04 01:09:23;;;;;;;0.53;0.53;;;10.60;86.70;10.10;97175.00;;;;5099598;28;20545;-79
2022/01/04 01:11:50;;;;;;;0.60;0.60;;;10.70;86.10;10.00;97165.00;;;;5099223;28;20223;-80
2022/01/04 01:14:17;;;;;;;0.57;0.57;;;10.60;86.50;10.00;97150.00;;;;5099323;28;20234;-80
2022/01/04 01:16:43;;;;;;;0.50;0.50;;;10.60;86.40;9.90;97150.00;;;;5099375;28;20316;-80
2022/01/04 01:19:10;;;;;;;0.60;0.60;;;10.60;86.80;9.90;97154.00;;;;5099497;28;20209;-80
2022/01/04 01:21:36;;;;;;;0.40;0.40;;;10.60;86.80;9.90;97137.00;;;;5099449;28;20209;-79
2022/01/04 01:24:04;;;;;;;0.60;0.60;;;10.60;87.00;9.90;97142.00;;;;5099239;28;20206;-80
2022/01/04 01:26:31;;;;;;;0.50;0.50;;;10.60;87.00;9.90;97139.00;;;;5099113;28;20197;-79
2022/01/04 01:28:58;;;;;;;0.70;0.70;;;10.60;87.00;10.00;97135.00;;;;5098883;28;20567;-79
2022/01/04 01:31:24;;;;;;;0.67;0.67;;;10.60;87.00;10.10;97126.00;;;;5098904;28;20236;-80
2022/01/04 01:33:51;;;;;;;0.50;0.50;;;10.70;86.60;10.00;97125.00;;;;5098947;28;20222;-80
2022/01/04 01:36:20;;;;;;;0.60;0.60;;;10.60;86.90;10.00;97114.00;;;;5098830;28;20293;-80
2022/01/04 01:38:46;;;;;;;2.33;1.73;;;10.70;86.40;10.00;97102.00;;;;5098801;28;20219;-79
2022/01/04 01:41:13;;;;;;;0.50;0.50;;;10.70;86.30;10.00;97102.00;;;;5098874;28;20214;-79
2022/01/04 01:43:39;;;;;;;0.60;0.60;;;10.70;86.70;10.00;97086.00;;;;5098853;28;20202;-80
2022/01/04 01:46:09;;;;;;;0.50;0.50;;;10.70;86.70;10.10;97080.00;;;;5098712;28;20663;-80
2022/01/04 01:48:35;;;;;;;0.60;0.60;;;10.60;86.70;10.00;97062.00;;;;5098736;28;20198;-79
2022/01/04 01:51:02;;;;;;;0.53;0.53;;;10.70;86.50;9.90;97069.00;;;;5098706;28;20237;-80
2022/01/04 01:53:32;;;;;;;0.60;0.60;;;10.60;86.80;9.90;97063.00;;;;5098913;28;20209;-80
2022/01/04 01:55:58;;;;;;;0.53;0.53;;;10.60;87.10;9.90;97055.00;;;;5115740;28;20694;-80
2022/01/04 01:58:25;;;;;;;0.50;0.50;;;10.50;87.40;9.80;97059.00;;;;5098099;28;20213;-80
2022/01/04 02:00:51;;;;;;;0.40;0.40;;;10.50;87.30;9.80;97053.00;;;;5098860;28;20186;-80
2022/01/04 02:03:18;;;;;;;0.50;0.50;;;10.50;87.70;10.00;97054.00;;;;5098737;28;20194;-80
2022/01/04 02:05:46;;;;;;;0.50;0.50;;;10.50;87.70;9.80;97044.00;;;;5098612;28;20232;-80
2022/01/04 02:08:17;;;;;;;0.60;0.60;;;10.50;87.00;9.90;97049.00;;;;5098568;28;20278;-80
2022/01/04 02:10:45;;;;;;;1.03;1.03;;;10.60;86.80;9.90;97037.00;;;;5098536;28;20316;-80
2022/01/04 02:13:12;;;;;;;0.73;0.73;;;10.50;87.30;9.90;97028.00;;;;5115353;28;20222;-80
2022/01/04 02:15:38;;;;;;;0.83;0.83;;;10.50;87.10;10.00;97017.00;;;;5115466;28;20209;-80
2022/01/04 02:18:06;;;;;;;0.50;0.50;;;10.60;86.80;9.90;97009.00;;;;5098254;28;20204;-80
2022/01/04 02:20:33;;;;;;;0.50;0.50;;;10.60;87.20;9.90;97018.00;;;;5098432;28;20579;-80
2022/01/04 02:23:02;;;;;;;0.70;0.70;;;10.50;87.30;9.90;97019.00;;;;5098417;28;20202;-80
2022/01/04 02:25:28;;;;;;;0.60;0.60;;;10.50;88.30;10.00;97003.00;;;;5098128;28;20210;-80
2022/01/04 02:27:55;;;;;;;0.50;0.50;;;10.60;87.60;10.00;96993.00;;;;5098174;28;20212;-80
2022/01/04 02:30:22;;;;;;;0.83;0.83;;;10.60;86.70;10.10;96998.00;;;;5097979;28;20229;-80
2022/01/04 02:32:49;;;;;;;0.60;0.60;;;10.70;86.80;10.10;96987.00;;;;5098036;28;20214;-78
2022/01/04 02:35:20;;;;;;;0.50;0.50;;;10.70;87.00;10.10;96973.00;;;;5097999;28;20226;-80
2022/01/04 02:37:47;;;;;;;0.50;0.50;;;10.70;86.80;10.10;96970.00;;;;5098060;28;20292;-80
2022/01/04 02:40:14;;;;;;;0.50;0.50;;;10.70;86.50;10.10;96955.00;;;;5097893;28;20210;-78
2022/01/04 02:42:41;;;;;;;0.67;0.67;;;10.70;86.20;10.00;96951.00;;;;5097953;28;20642;-80
2022/01/04 02:45:09;;;;;;;0.50;0.50;;;10.70;86.70;10.10;96936.00;;;;5098022;28;20248;-80
2022/01/04 02:47:36;;;;;;;0.57;0.57;;;10.70;86.80;10.10;96930.00;;;;5097842;28;20222;-80
2022/01/04 02:50:06;;;;;;;0.60;0.60;;;10.70;86.30;10.10;96924.00;;;;5097823;28;20221;-79
2022/01/04 02:52:33;;;;;;;0.60;0.60;;;10.70;86.80;10.10;96918.00;;;;5097719;28;20235;-80
2022/01/04 02:55:06;;;;;;;4.43;0.70;;;10.70;86.00;10.10;96906.00;;;;5097701;28;20194;-80
2022/01/04 02:57:32;;;;;;;1.20;1.10;;;10.70;86.20;10.10;96901.00;;;;5097599;28;20253;-77
2022/01/04 02:59:59;;;;;;;0.80;0.80;;;10.70;86.20;10.00;96908.00;;;;5097621;28;20601;-79
2022/01/04 03:02:26;;;;;;;0.50;0.50;;;10.70;86.10;10.00;96896.00;;;;5097562;28;20208;-78
2022/01/04 03:04:55;;;;;;;0.60;0.60;;;10.70;86.40;9.90;96903.00;;;;5097623;28;20255;-80
2022/01/04 03:07:22;;;;;;;1.00;0.90;;;10.70;86.50;10.00;96903.00;;;;5097704;28;20274;-80
2022/01/04 03:09:48;;;;;;;0.67;0.67;;;10.70;86.80;10.00;96902.00;;;;5096199;28;20244;-80
2022/01/04 03:12:15;;;;;;;0.60;0.60;;;10.70;85.90;10.10;96887.00;;;;5097417;28;20338;-79
2022/01/04 03:14:42;;;;;;;0.60;0.60;;;10.70;86.00;10.00;96888.00;;;;5097397;28;20236;-80
2022/01/04 03:17:08;;;;;;;0.70;0.70;;;10.70;86.20;10.20;96886.00;;;;5097371;28;20201;-79
2022/01/04 03:19:38;;;;;;;0.70;0.70;;;10.80;85.30;10.10;96884.00;;;;5097267;28;20585;-80
2022/01/04 03:22:07;;;;;;;0.70;0.70;;;10.80;85.20;10.10;96881.00;;;;5097256;28;20202;-80
2022/01/04 03:24:34;;;;;;;0.50;0.50;;;10.80;85.30;10.00;96881.00;;;;5097300;28;20206;-79
2022/01/04 03:27:00;;;;;;;0.77;0.77;;;10.70;86.10;10.00;96868.00;;;;5097146;28;20221;-80
2022/01/04 03:29:27;;;;;;;0.70;0.70;;;10.70;86.20;10.10;96866.00;;;;5097093;28;20284;-80
2022/01/04 03:31:57;;;;;;;0.50;0.50;;;10.70;86.20;10.00;96860.00;;;;5097078;28;20239;-80
2022/01/04 03:34:24;;;;;;;0.60;0.60;;;10.80;86.00;10.00;96856.00;;;;5097137;28;20659;-79
2022/01/04 03:36:53;;;;;;;0.80;0.80;;;10.70;86.60;10.10;96841.00;;;;5097070;28;20233;-80
2022/01/04 03:39:19;;;;;;;0.70;0.70;;;10.70;86.30;10.20;96836.00;;;;5097130;28;20297;-79
2022/01/04 03:41:46;;;;;;;0.73;0.73;;;10.80;86.30;10.20;96845.00;;;;5097107;28;20233;-79
2022/01/04 03:44:19;;;;;;;0.50;0.50;;;10.80;86.40;10.20;96838.00;;;;5096963;28;20193;-80
2022/01/04 03:46:47;;;;;;;0.50;0.50;;;10.80;86.60;10.20;96832.00;;;;5096997;28;20536;-78
2022/01/04 03:49:16;;;;;;;0.70;0.70;;;10.90;86.50;10.20;96816.00;;;;5113731;28;20222;-79
2022/01/04 03:51:43;;;;;;;0.80;0.80;;;10.80;86.50;10.30;96806.00;;;;5096802;28;20220;-80
2022/01/04 03:54:10;;;;;;;0.70;0.70;;;10.90;86.10;10.20;96803.00;;;;5096698;28;20226;-80
2022/01/04 03:56:39;;;;;;;0.50;0.50;;;10.90;86.30;10.10;96798.00;;;;5113661;28;20667;-79
2022/01/04 03:59:06;;;;;;;0.60;0.60;;;10.80;86.80;10.00;96802.00;;;;5096693;28;20257;-80
2022/01/04 04:01:33;;;;;;;0.50;0.50;;;10.80;87.00;9.90;96801.00;;;;5096893;28;20209;-79
2022/01/04 04:04:00;;;;;;;0.60;0.60;;;10.70;88.00;9.90;96793.00;;;;5097675;28;20289;-79
2022/01/04 04:06:26;;;;;;;0.83;0.83;;;10.60;88.30;10.10;96793.00;;;;5104166;28;20217;-80
2022/01/04 04:08:56;;;;;;;0.60;0.60;;;10.70;88.30;10.20;96756.00;;;;5109111;28;20213;-80
2022/01/04 04:11:24;;;;;;;0.50;0.50;;;10.80;87.30;10.10;96776.00;;;;5108381;28;20257;-80
2022/01/04 04:13:50;;;;;;;0.60;0.60;;;10.80;87.40;10.00;96775.00;;;;5100503;28;20201;-79
2022/01/04 04:16:17;;;;;;;0.63;0.63;;;10.70;88.30;10.20;96766.00;;;;5097055;28;20322;-80
2022/01/04 04:18:46;;;;;;;1.10;1.10;;;10.80;88.20;10.10;96759.00;;;;5097986;28;20217;-80
2022/01/04 04:21:13;;;;;;;0.80;0.80;;;10.80;88.00;10.10;96753.00;;;;5103122;28;20245;-79
2022/01/04 04:23:42;;;;;;;0.97;0.97;;;10.80;88.50;10.10;96751.00;;;;5109014;28;20269;-80
2022/01/04 04:26:08;;;;;;;0.60;0.60;;;10.70;89.10;10.00;96744.00;;;;5108823;28;20262;-79
2022/01/04 04:28:35;;;;;;;0.50;0.50;;;10.70;89.50;10.00;96729.00;;;;5096408;28;20544;-79
2022/01/04 04:31:03;;;;;;;0.70;0.70;;;10.70;90.30;9.90;96721.00;;;;5096398;28;20232;-80
2022/01/04 04:33:32;;;;;;;0.63;0.63;;;10.60;90.30;9.90;96731.00;;;;5096196;28;20233;-79
2022/01/04 04:36:02;;;;;;;0.73;0.73;;;10.60;90.60;10.00;96736.00;;;;5113380;28;20237;-79
2022/01/04 04:38:29;;;;;;;0.80;0.80;;;10.60;90.40;10.00;96729.00;;;;5096226;28;20379;-79
2022/01/04 04:40:59;;;;;;;0.60;0.60;;;10.70;91.20;10.00;96720.00;;;;5096442;28;20212;-79
2022/01/04 04:43:25;;;;;;;0.50;0.50;;;10.60;90.50;10.20;96722.00;;;;5096326;28;20206;-79
2022/01/04 04:45:52;;;;;;;0.50;0.50;;;10.80;90.20;10.20;96704.00;;;;5096466;28;20604;-78
2022/01/04 04:48:21;;;;;;;0.57;0.57;;;10.80;90.70;10.10;96718.00;;;;5096067;28;20204;-79
2022/01/04 04:50:47;;;;;;;0.50;0.50;;;10.80;90.20;10.00;96704.00;;;;5095866;28;20241;-79
2022/01/04 04:53:14;;;;;;;6.77;1.07;;;10.70;90.70;10.00;96711.00;;;;5096039;28;20216;-79
2022/01/04 04:55:41;;;;;;;0.90;0.90;;;10.70;90.70;9.90;96707.00;;;;5095861;28;20721;-77
2022/01/04 04:58:07;;;;;;;0.50;0.50;;;10.70;91.60;9.90;96701.00;;;;5095835;28;20210;-79
2022/01/04 05:00:37;;;;;;;0.70;0.70;;;10.60;91.70;9.90;96694.00;;;;5095695;28;20242;-79
2022/01/04 05:03:03;;;;;;;0.60;0.60;;;10.60;92.10;9.90;96691.00;;;;5096287;28;20190;-79
2022/01/04 05:05:30;;;;;;;0.60;0.60;;;10.60;92.80;9.90;96678.00;;;;5095846;28;20194;-79
2022/01/04 05:07:56;;;;;;;0.57;0.57;;;10.60;92.40;9.90;96684.00;;;;5095829;28;20613;-79
2022/01/04 05:10:23;;;;;;;0.77;0.77;;;10.60;93.00;10.10;96677.00;;;;5095502;28;20612;-79
2022/01/04 05:12:50;;;;;;;0.50;0.50;;;10.70;92.40;10.00;96670.00;;;;5095685;28;20282;-79
2022/01/04 05:15:17;;;;;;;0.70;0.70;;;10.70;92.50;9.90;96671.00;;;;5095804;28;20201;-79
2022/01/04 05:17:43;;;;;;;0.60;0.60;;;10.60;93.00;10.10;96670.00;;;;5095655;28;20241;-79
2022/01/04 05:20:10;;;;;;;0.70;0.70;;;10.60;93.30;10.00;96635.00;;;;5095718;28;20587;-78
2022/01/04 05:22:37;;;;;;;0.60;0.60;;;10.70;93.30;9.90;96661.00;;;;5095727;28;20574;-79
2022/01/04 05:25:05;;;;;;;0.57;0.57;;;10.70;93.90;9.90;96649.00;;;;5095665;28;20627;-78
2022/01/04 05:27:31;;;;;;;0.67;0.67;;;10.60;94.20;10.00;96652.00;;;;5095555;28;20210;-79
2022/01/04 05:30:01;;;;;;;0.50;0.50;;;10.60;94.00;10.00;96652.00;;;;5095389;28;20240;-79
2022/01/04 05:32:28;;;;;;;0.77;0.77;;;10.60;94.40;10.10;96638.00;;;;5097059;28;20277;-79
2022/01/04 05:34:54;;;;;;;0.60;0.60;;;10.70;94.10;10.00;96627.00;;;;5098910;28;20541;-78
2022/01/04 05:37:21;;;;;;;0.53;0.53;;;10.70;94.60;10.20;96612.00;;;;5098903;28;20210;-79
2022/01/04 05:39:47;;;;;;;0.57;0.57;;;10.80;93.90;10.00;96610.00;;;;5098847;28;20205;-79
2022/01/04 05:42:14;;;;;;;0.50;0.50;;;10.70;94.40;10.10;96610.00;;;;5098837;28;20212;-79
2022/01/04 05:44:40;;;;;;;0.60;0.60;;;10.70;93.60;9.90;96609.00;;;;5098788;28;20210;-79
2022/01/04 05:47:07;;;;;;;0.50;0.50;;;10.70;94.50;10.00;96606.00;;;;5098703;28;20228;-77
2022/01/04 05:49:34;;;;;;;0.70;0.70;;;10.70;94.90;10.10;96586.00;;;;5116109;28;20194;-79
2022/01/04 05:52:04;;;;;;;0.63;0.63;;;10.80;94.80;10.10;96607.00;;;;5098801;28;20225;-78
2022/01/04 05:54:30;;;;;;;0.57;0.57;;;10.70;94.60;10.10;96597.00;;;;5098625;28;20588;-79
2022/01/04 05:56:57;;;;;;;0.53;0.53;;;10.70;94.90;10.10;96603.00;;;;5098566;28;20343;-79
2022/01/04 05:59:23;;;;;;;0.50;0.50;;;10.70;94.50;10.10;96594.00;;;;5098740;28;20194;-79
2022/01/04 06:01:50;;;;;;;0.50;0.50;;;10.70;94.70;10.00;96596.00;;;;5098464;28;20543;-79
2022/01/04 06:04:17;;;;;;;0.70;0.70;;;10.70;95.10;10.00;96586.00;;;;5098529;28;20214;-79
2022/01/04 06:06:46;;;;;;;0.60;0.60;;;10.70;95.50;9.90;96574.00;;;;5098394;28;20201;-79
2022/01/04 06:09:20;;;;;;;0.70;0.70;;;10.70;95.40;10.10;96577.00;;;;5098192;28;20249;-79
2022/01/04 06:12:02;;;;;;;0.50;0.50;;;10.70;96.10;10.10;96573.00;;;;5098236;28;20336;-78
2022/01/04 06:17:15;;;;;;;0.67;0.67;;;10.70;95.10;10.10;96567.00;;;;5098439;28;20209;-79
2022/01/04 06:19:43;;;;;;;0.70;0.70;;;10.70;95.30;10.20;96571.00;;;;5098282;28;20229;-79
2022/01/04 06:22:09;;;;;;;0.63;0.63;;;10.80;95.50;10.20;96565.00;;;;5098289;28;20220;-79
2022/01/04 06:24:36;;;;;;;0.60;0.60;;;10.90;95.70;10.10;96544.00;;;;5098382;28;20282;-79
2022/01/04 06:27:08;;;;;;;0.50;0.50;;;10.80;95.10;10.10;96548.00;;;;5098293;28;20206;-79
2022/01/04 06:29:35;;;;;;;0.83;0.73;;;10.80;95.30;10.00;96544.00;;;;5098124;28;20198;-79
2022/01/04 06:32:05;;;;;;;0.70;0.70;;;10.70;96.50;9.90;96532.00;;;;5115151;28;20221;-79
2022/01/04 06:34:32;;;;;;;0.50;0.50;;;10.70;96.70;10.10;96532.00;;;;5098241;28;20289;-79
2022/01/04 06:36:59;;;;;;;0.57;0.57;;;10.70;97.20;10.10;96529.00;;;;5098146;28;20230;-79
2022/01/04 06:39:26;;;;;;;0.53;0.53;;;10.70;96.60;10.00;96523.00;;;;5098088;28;20220;-79
2022/01/04 06:41:55;;;;;;;0.50;0.50;;;10.80;96.60;10.00;96528.00;;;;5098123;28;20225;-79
2022/01/04 06:44:21;;;;;;;0.60;0.60;;;10.70;97.10;10.10;96518.00;;;;5098033;28;20498;-79
2022/01/04 06:46:48;;;;;;;0.60;0.60;;;10.70;97.30;10.10;96518.00;;;;5098029;28;20201;-79
2022/01/04 06:49:16;;;;;;;0.60;0.60;;;10.70;97.20;10.10;96506.00;;;;5097822;28;20309;-79
2022/01/04 06:51:45;;;;;;;0.60;0.60;;;10.80;96.80;10.00;96505.00;;;;5097803;28;20229;-78
2022/01/04 06:54:17;;;;;;;0.60;0.60;;;10.70;97.70;10.10;96511.00;;;;5097824;28;20296;-80
2022/01/04 06:56:44;;;;;;;0.50;0.50;;;10.70;98.00;10.10;96506.00;;;;5097935;28;20285;-81
2022/01/04 06:59:11;;;;;;;0.50;0.50;;;10.80;97.70;10.20;96509.00;;;;5097779;28;20268;-83
2022/01/04 07:01:38;;;;;;;0.90;0.90;;;10.80;97.50;10.20;96504.00;;;;5097623;28;20308;-82
2022/01/04 07:04:06;;;;;;;0.50;0.50;;;10.90;97.30;10.10;96495.00;;;;5097714;28;20206;-82
2022/01/04 07:06:35;;;;;;;0.80;0.80;;;10.80;98.50;10.20;96497.00;;;;5114658;28;20232;-79
2022/01/04 07:09:04;;;;;;;0.53;0.53;;;10.80;98.00;10.20;96492.00;;;;5097417;28;20202;-78
2022/01/04 07:11:31;;;;;;;0.60;0.60;;;10.90;98.00;10.20;96492.00;;;;5097326;28;20224;-82
2022/01/04 07:13:57;;;;;;;0.93;0.93;;;10.90;97.80;10.20;96480.00;;;;5114521;28;20198;-85
2022/01/04 07:16:26;;;;;;;0.50;0.50;;;10.90;98.00;10.20;96476.00;;;;5097255;28;20228;-85
2022/01/04 07:18:54;;;;;;;2.23;0.93;;;10.90;98.60;10.40;96463.00;;;;5097495;28;20208;-86
2022/01/04 07:21:21;;;;;;;0.80;0.80;;;10.90;98.90;10.40;96466.00;;;;5097052;28;20206;-79
2022/01/04 07:23:48;;;;;;;0.63;0.63;;;11.10;98.00;10.60;96465.00;;;;5097369;28;20281;-75
2022/01/04 07:26:16;;;;;;;0.50;0.50;;;11.10;97.50;10.50;96460.00;;;;5097254;28;20306;-76
2022/01/04 07:28:48;;;;;;;0.60;0.60;;;11.10;97.10;10.60;96461.00;;;;5097129;28;20253;-75
2022/01/04 07:31:17;;;;;;;0.53;0.53;;;11.20;97.00;10.60;96459.00;;;;5097021;28;20263;-76
2022/01/04 07:33:45;;;;;;;0.50;0.50;;;11.20;97.00;10.60;96459.00;;;;5097152;28;20194;-75
2022/01/04 07:36:13;;;;;;;0.80;0.80;;;11.20;97.00;10.60;96456.00;;;;5097055;28;20284;-77
2022/01/04 07:38:40;;;;;;;0.50;0.50;;;11.20;96.70;10.60;96448.00;;;;5097193;28;20198;-77
2022/01/04 07:41:07;;;;;;;0.50;0.50;;;11.20;96.70;10.60;96443.00;;;;5096927;28;20672;-76
2022/01/04 07:43:34;;;;;;;0.50;0.50;;;11.20;97.50;10.60;96448.00;;;;5114071;28;20228;-76
2022/01/04 07:46:01;;;;;;;0.97;0.97;;;11.20;97.60;10.70;96443.00;;;;5114069;28;20300;-77
2022/01/04 07:48:28;;;;;;;0.50;0.50;;;11.30;97.40;10.80;96439.00;;;;5097018;28;20226;-75
2022/01/04 07:50:59;;;;;;;0.70;0.70;;;11.30;97.10;10.90;96433.00;;;;5096848;28;20226;-76
2022/01/04 07:53:28;;;;;;;0.80;0.80;;;11.40;96.90;10.80;96425.00;;;;5096603;28;20752;-76
2022/01/04 07:55:55;;;;;;;0.80;0.80;;;11.40;96.40;10.90;96430.00;;;;5096178;28;20229;-77
2022/01/04 07:58:25;;;;;;;0.50;0.50;;;11.50;96.70;10.90;96422.00;;;;5096843;28;20225;-77
2022/01/04 08:00:52;;;;;;;0.90;0.90;;;11.50;96.80;10.80;96415.00;;;;5096825;28;20556;-77
2022/01/04 08:03:19;;;;;;;0.67;0.67;;;11.40;96.90;10.80;96415.00;;;;5096678;28;20259;-75
2022/01/04 08:05:46;;;;;;;0.50;0.50;;;11.40;97.00;10.90;96413.00;;;;5096655;28;20232;-76
2022/01/04 08:08:12;;;;;;;0.50;0.50;;;11.50;97.00;11.00;96411.00;;;;5096962;28;20292;-75
2022/01/04 08:10:39;;;;;;;0.50;0.50;;;11.60;96.70;11.00;96419.00;;;;5096645;28;20253;-76
2022/01/04 08:13:06;;;;;;;0.83;0.73;;;11.60;96.50;11.00;96422.00;;;;5097359;28;20316;-74
2022/01/04 08:15:32;;;;;;;0.63;0.63;;;11.60;96.50;10.90;96407.00;;;;5100144;28;20210;-75
2022/01/04 08:18:01;;;;;;;0.60;0.60;;;11.60;96.70;11.20;96417.00;;;;5101637;28;20202;-74
2022/01/04 08:20:28;;;;;;;0.60;0.60;;;11.70;95.90;11.20;96405.00;;;;5102483;28;20226;-78
2022/01/04 08:22:55;;;;;;;0.60;0.60;;;11.70;95.10;11.10;96396.00;;;;5096870;28;20213;-79
2022/01/04 08:25:22;;;;;;;0.60;0.60;;;11.70;95.30;11.20;96401.00;;;;5096846;28;20292;-74
2022/01/04 08:27:49;;;;;;;0.57;0.57;;;11.80;95.60;11.30;96392.00;;;;5097163;28;20292;-74
2022/01/04 08:30:16;;;;;;;0.60;0.60;;;11.90;95.10;11.30;96392.00;;;;5103853;28;20222;-76
2022/01/04 08:32:42;;;;;;;0.90;0.90;;;11.90;95.00;11.40;96396.00;;;;5106404;28;20230;-77
2022/01/04 08:35:10;;;;;;;0.50;0.50;;;11.90;94.80;11.40;96394.00;;;;5105967;28;20237;-76
2022/01/04 08:37:37;;;;;;;0.50;0.50;;;12.00;94.70;11.40;96399.00;;;;5096722;28;20275;-76
2022/01/04 08:40:07;;;;;;;0.50;0.50;;;12.00;94.50;11.40;96402.00;;;;5098003;28;20213;-76
2022/01/04 08:42:35;;;;;;;0.57;0.57;;;12.00;94.80;11.50;96395.00;;;;5096442;28;20305;-77
2022/01/04 08:45:02;;;;;;;0.50;0.50;;;12.00;95.10;11.50;96390.00;;;;5096645;28;20225;-76
2022/01/04 08:47:28;;;;;;;0.60;0.60;;;12.10;94.70;11.50;96376.00;;;;5096732;28;20316;-75
2022/01/04 08:49:55;;;;;;;0.97;0.97;;;12.10;94.50;11.30;96369.00;;;;5098225;28;20660;-76
2022/01/04 08:52:22;;;;;;;0.47;0.47;;;12.00;96.20;11.40;96346.00;;;;5097992;28;20233;-76
2022/01/04 08:54:52;;;;;;;0.60;0.60;;;12.00;95.50;11.50;96356.00;;;;5098373;28;20197;-77
2022/01/04 08:57:22;;;;;;;0.50;0.50;;;12.10;95.20;11.50;96362.00;;;;5095848;28;20198;-76
2022/01/04 08:59:49;;;;;;;0.60;0.60;;;12.10;95.20;11.50;96352.00;;;;5095907;28;20202;-77
2022/01/04 09:02:16;;;;;;;0.60;0.60;;;12.10;95.10;11.50;96362.00;;;;5095845;28;20198;-77
2022/01/04 09:04:42;;;;;;;1.50;0.70;;;12.10;95.20;11.50;96354.00;;;;5095829;28;20544;-77
2022/01/04 09:07:09;;;;;;;1.33;1.33;;;12.10;95.20;11.50;96356.00;;;;5097070;28;20225;-77
2022/01/04 09:09:37;;;;;;;0.50;0.50;;;12.10;95.00;11.60;96359.00;;;;5099395;28;20198;-77
2022/01/04 09:12:08;;;;;;;0.50;0.50;;;12.20;94.20;11.70;96352.00;;;;5099152;28;20229;-78
2022/01/04 09:14:43;;;;;;;0.73;0.73;;;12.30;93.80;11.60;96340.00;;;;5099229;28;20473;-77
2022/01/04 09:19:57;;;;;;;0.50;0.50;;;12.20;94.00;11.60;96330.00;;;;5099373;28;20298;-77
2022/01/04 09:22:24;;;;;;;0.80;0.80;;;12.20;93.40;11.60;96337.00;;;;5099243;28;20581;-77
2022/01/04 09:24:50;;;;;;;0.50;0.50;;;12.20;93.00;11.80;96328.00;;;;5099249;28;20225;-76
2022/01/04 09:27:18;;;;;;;0.50;0.50;;;12.30;92.20;11.70;96325.00;;;;5099246;28;20206;-77
2022/01/04 09:29:47;;;;;;;0.60;0.60;;;12.30;93.10;11.70;96333.00;;;;5099047;28;20205;-76
2022/01/04 09:32:16;;;;;;;1.23;1.10;;;12.30;92.20;11.80;96313.00;;;;5098994;28;20659;-77
2022/01/04 09:34:43;;;;;;;0.53;0.53;;;12.30;92.90;11.70;96309.00;;;;5099064;28;20617;-75
2022/01/04 09:37:13;;;;;;;0.50;0.50;;;12.30;93.00;11.60;96284.00;;;;5098893;28;20225;-76
2022/01/04 09:39:42;;;;;;;0.50;0.50;;;12.30;93.60;11.80;96304.00;;;;5098915;28;20201;-77
2022/01/04 09:42:09;;;;;;;0.60;0.60;;;12.30;92.90;11.80;96313.00;;;;5099114;28;20212;-77
2022/01/04 09:44:37;;;;;;;0.50;0.50;;;12.30;93.00;11.80;96323.00;;;;5098713;28;20222;-76
2022/01/04 09:47:06;;;;;;;0.60;0.60;;;12.30;93.10;11.80;96320.00;;;;5098893;28;20221;-76
2022/01/04 09:49:33;;;;;;;0.50;0.50;;;12.40;92.50;11.60;96330.00;;;;5098555;28;20232;-81
2022/01/04 09:52:03;;;;;;;0.50;0.50;;;12.30;93.50;11.70;96325.00;;;;5098634;28;20218;-79
2022/01/04 09:54:31;;;;;;;0.60;0.60;;;12.30;94.10;11.60;96342.00;;;;5098480;28;20305;-76
2022/01/04 09:56:59;;;;;;;0.50;0.50;;;12.30;93.90;11.70;96327.00;;;;5098655;28;20323;-77
2022/01/04 09:59:25;;;;;;;0.60;0.60;;;12.40;93.40;11.70;96309.00;;;;5098636;28;20371;-79
2022/01/04 10:02:01;;;;;;;0.63;0.63;;;12.30;93.10;11.70;96329.00;;;;5098338;28;20317;-76
2022/01/04 10:04:28;;;;;;;0.50;0.50;;;12.30;93.20;11.80;96324.00;;;;5098397;28;20201;-78
2022/01/04 10:07:02;;;;;;;0.60;0.60;;;12.40;93.00;11.80;96315.00;;;;5098326;28;20766;-77
2022/01/04 10:09:44;;;;;;;0.70;0.70;;;12.40;93.60;11.70;96311.00;;;;5098283;28;20244;-75
2022/01/04 10:12:12;;;;;;;0.67;0.67;;;12.30;94.50;11.80;96301.00;;;;5098238;28;20217;-76
2022/01/04 10:14:41;;;;;;;16.13;1.27;;;12.40;93.60;11.80;96309.00;;;;5098233;28;20277;-78
2022/01/04 10:17:14;;;;;;;0.60;0.60;;;12.40;93.30;11.70;96289.00;;;;5098157;28;20213;-79
2022/01/04 10:19:43;;;;;;;0.60;0.60;;;12.40;93.90;11.90;96281.00;;;;5097934;28;20625;-78
2022/01/04 10:22:19;;;;;;;0.70;0.70;;;12.50;93.60;12.00;96283.00;;;;5098190;28;20320;-77
2022/01/04 10:24:48;;;;;;;0.53;0.53;;;12.60;92.90;12.00;96306.00;;;;5098101;28;20304;-77
2022/01/04 10:27:30;;;;;;;0.60;0.60;;;12.60;93.30;11.90;96298.00;;;;5097994;28;20217;-77
2022/01/04 10:30:20;;;;;;;1.03;1.03;;;12.50;93.30;11.90;96295.00;;;;5097885;28;20782;-74
2022/01/04 10:33:01;;;;;;;0.47;0.47;;;12.50;94.00;11.80;96276.00;;;;5098106;28;20214;-76
2022/01/04 10:35:35;;;;;;;0.90;0.87;;;12.40;94.60;12.00;96268.00;;;;5097841;28;20233;-75
2022/01/04 10:38:14;;;;;;;1.17;1.17;;;12.50;94.70;11.90;96252.00;;;;5097822;28;20219;-76
2022/01/04 10:40:47;;;;;;;0.50;0.50;;;12.50;93.70;12.00;96253.00;;;;5097915;28;20241;-76
2022/01/04 10:43:16;;;;;;;0.60;0.60;;;12.50;93.40;11.90;96279.00;;;;5097949;28;20277;-77
2022/01/04 10:45:45;;;;;;;0.50;0.50;;;12.50;93.40;11.90;96271.00;;;;5097798;28;20231;-77
2022/01/04 10:48:20;;;;;;;0.70;0.70;;;12.60;92.80;11.90;96239.00;;;;5097713;28;20193;-78
2022/01/04 10:50:50;;;;;;;0.63;0.63;;;12.50;94.30;12.00;96237.00;;;;5097723;28;20316;-75
2022/01/04 10:53:24;;;;;;;0.60;0.60;;;12.50;93.50;11.90;96267.00;;;;5097601;28;20274;-77
2022/01/04 10:55:54;;;;;;;0.50;0.50;;;12.50;93.10;11.90;96265.00;;;;5097684;28;20274;-79
2022/01/04 10:58:26;;;;;;;0.60;0.60;;;12.50;92.90;12.00;96268.00;;;;5097633;28;20361;-80
2022/01/04 11:00:59;;;;;;;0.50;0.50;;;12.60;92.70;12.00;96273.00;;;;5097646;28;20209;-77
2022/01/04 11:03:30;;;;;;;0.60;0.60;;;12.60;92.20;11.90;96248.00;;;;5097375;28;20293;-80
2022/01/04 11:06:08;;;;;;;0.60;0.60;;;12.50;92.30;12.00;96258.00;;;;5097426;28;20213;-77